createdAt,value
2022-08-20T00:01:17.210Z,53.70
2022-08-20T00:03:50.238Z,52.90
2022-08-20T00:06:23.380Z,52.00
2022-08-20T00:08:51.777Z,53.43
2022-08-20T00:11:22.902Z,53.50
2022-08-20T00:13:54.518Z,53.73
2022-08-20T00:16:24.134Z,53.53
2022-08-20T00:18:53.885Z,53.17
2022-08-20T00:21:23.289Z,52.33
2022-08-20T00:23:54.160Z,53.17
2022-08-20T00:26:22.527Z,52.87
2022-08-20T00:28:50.991Z,53.33
2022-08-20T00:31:21.017Z,52.63
2022-08-20T00:33:49.136Z,52.77
2022-08-20T00:36:19.019Z,52.83
2022-08-20T00:38:48.066Z,52.40
2022-08-20T00:41:19.693Z,53.60
2022-08-20T00:43:50.688Z,52.80
2022-08-20T00:46:22.639Z,52.30
2022-08-20T00:48:59.095Z,52.17
2022-08-20T00:51:33.535Z,52.40
2022-08-20T00:54:07.645Z,52.30
2022-08-20T00:56:37.203Z,50.97
2022-08-20T00:59:11.201Z,51.77
2022-08-20T01:01:55.175Z,51.80
2022-08-20T01:04:26.165Z,51.60
2022-08-20T01:06:55.960Z,51.67
2022-08-20T01:09:49.396Z,52.20
2022-08-20T01:12:13.581Z,51.70
2022-08-20T01:14:46.083Z,51.93
2022-08-20T01:17:18.065Z,51.37
2022-08-20T01:19:49.471Z,51.67
2022-08-20T01:22:43.844Z,52.00
2022-08-20T01:25:23.900Z,51.97
2022-08-20T01:27:55.506Z,52.23
2022-08-20T01:30:28.326Z,52.30
2022-08-20T01:32:56.793Z,52.13
2022-08-20T01:35:25.791Z,52.23
2022-08-20T01:37:54.310Z,52.40
2022-08-20T01:40:30.231Z,51.47
2022-08-20T01:42:59.917Z,52.60
2022-08-20T01:45:30.377Z,51.80
2022-08-20T01:47:59.073Z,51.53
2022-08-20T01:50:29.676Z,52.17
2022-08-20T01:53:04.269Z,51.60
2022-08-20T01:55:33.384Z,51.63
2022-08-20T01:58:02.856Z,51.37
2022-08-20T02:00:32.416Z,51.57
2022-08-20T02:03:00.223Z,51.43
2022-08-20T02:05:30.574Z,51.70
2022-08-20T02:07:58.731Z,52.23
2022-08-20T02:10:26.772Z,51.57
2022-08-20T02:12:54.587Z,51.60
2022-08-20T02:15:30.838Z,51.27
2022-08-20T02:18:05.655Z,51.97
2022-08-20T02:20:37.261Z,52.30
2022-08-20T02:23:05.888Z,51.33
2022-08-20T02:25:36.488Z,51.50
2022-08-20T02:28:07.842Z,51.17
2022-08-20T02:30:41.301Z,51.53
2022-08-20T02:33:12.114Z,51.47
2022-08-20T02:35:42.632Z,51.70
2022-08-20T02:38:10.611Z,51.53
2022-08-20T02:40:39.065Z,51.63
2022-08-20T02:43:07.480Z,51.53
2022-08-20T02:45:43.451Z,52.00
2022-08-20T02:48:15.436Z,52.23
2022-08-20T02:50:44.938Z,51.70
2022-08-20T02:53:12.793Z,51.57
2022-08-20T02:55:40.663Z,51.53
2022-08-20T02:58:08.470Z,51.93
2022-08-20T03:00:37.986Z,51.27
2022-08-20T03:03:07.937Z,51.17
2022-08-20T03:05:36.243Z,51.23
2022-08-20T03:08:09.273Z,51.07
2022-08-20T03:10:39.053Z,51.30
2022-08-20T03:13:12.324Z,50.90
2022-08-20T03:15:44.861Z,51.80
2022-08-20T03:18:13.249Z,51.57
2022-08-20T03:20:41.129Z,51.50
2022-08-20T03:23:09.013Z,51.30
2022-08-20T03:25:37.410Z,51.47
2022-08-20T03:28:05.787Z,51.93
2022-08-20T03:30:33.998Z,51.13
2022-08-20T03:33:03.362Z,51.27
2022-08-20T03:35:32.607Z,51.07
2022-08-20T03:38:00.859Z,51.33
2022-08-20T03:40:31.465Z,51.77
2022-08-20T03:42:59.672Z,51.63
2022-08-20T03:45:28.314Z,51.47
2022-08-20T03:47:57.081Z,51.17
2022-08-20T03:50:28.922Z,51.03
2022-08-20T03:52:57.592Z,51.57
2022-08-20T03:55:26.035Z,50.90
2022-08-20T03:57:57.282Z,51.30
2022-08-20T04:00:27.879Z,51.20
2022-08-20T04:02:57.117Z,51.67
2022-08-20T04:05:28.460Z,52.00
2022-08-20T04:07:58.421Z,51.87
2022-08-20T04:10:31.450Z,51.90
2022-08-20T04:12:59.404Z,51.73
2022-08-20T04:15:28.003Z,51.40
2022-08-20T04:17:56.156Z,51.43
2022-08-20T04:20:26.943Z,51.33
2022-08-20T04:22:59.139Z,52.00
2022-08-20T04:25:28.982Z,51.17
2022-08-20T04:27:58.604Z,51.40
2022-08-20T04:30:27.324Z,51.33
2022-08-20T04:32:56.065Z,51.53
2022-08-20T04:35:25.292Z,51.50
2022-08-20T04:38:00.818Z,51.63
2022-08-20T04:40:47.442Z,51.70
2022-08-20T04:43:16.165Z,51.60
2022-08-20T04:45:45.182Z,51.07
2022-08-20T04:48:15.165Z,51.03
2022-08-20T04:50:46.913Z,51.17
2022-08-20T04:53:22.725Z,51.77
2022-08-20T04:55:54.852Z,51.43
2022-08-20T04:58:27.313Z,51.40
2022-08-20T05:00:57.296Z,51.70
2022-08-20T05:03:30.531Z,52.00
2022-08-20T05:05:59.079Z,51.63
2022-08-20T05:08:29.774Z,52.27
2022-08-20T05:11:06.950Z,51.60
2022-08-20T05:13:46.881Z,51.97
2022-08-20T05:16:17.523Z,51.73
2022-08-20T05:18:46.286Z,51.13
2022-08-20T05:21:21.027Z,51.43
2022-08-20T05:23:50.273Z,51.27
2022-08-20T05:26:19.972Z,51.27
2022-08-20T05:28:54.242Z,51.07
2022-08-20T05:31:32.157Z,51.03
2022-08-20T05:34:02.909Z,50.97
2022-08-20T05:36:31.057Z,51.13
2022-08-20T05:39:00.235Z,51.93
2022-08-20T05:41:30.266Z,51.87
2022-08-20T05:44:00.531Z,51.73
2022-08-20T05:46:28.455Z,51.20
2022-08-20T05:48:59.674Z,51.57
2022-08-20T05:51:27.862Z,50.80
2022-08-20T05:53:57.425Z,51.77
2022-08-20T05:56:30.147Z,52.37
2022-08-20T05:58:58.997Z,51.50
2022-08-20T06:01:26.926Z,52.00
2022-08-20T06:04:12.223Z,51.67
2022-08-20T06:06:45.813Z,51.87
2022-08-20T06:09:15.379Z,51.30
2022-08-20T06:11:44.677Z,51.80
2022-08-20T06:14:12.511Z,51.67
2022-08-20T06:16:57.217Z,51.73
2022-08-20T06:19:27.146Z,52.30
2022-08-20T06:22:00.565Z,52.13
2022-08-20T06:24:28.636Z,51.73
2022-08-20T06:26:58.907Z,51.93
2022-08-20T06:29:27.646Z,51.77
2022-08-20T06:31:55.849Z,51.90
2022-08-20T06:34:28.081Z,51.43
2022-08-20T06:36:56.599Z,52.33
2022-08-20T06:39:26.435Z,51.47
2022-08-20T06:41:56.118Z,51.87
2022-08-20T06:44:25.880Z,52.03
2022-08-20T06:46:55.576Z,51.60
2022-08-20T06:49:23.437Z,51.93
2022-08-20T06:51:52.120Z,52.10
2022-08-20T06:54:20.232Z,51.83
2022-08-20T06:56:54.528Z,51.93
2022-08-20T06:59:22.647Z,51.77
2022-08-20T07:01:51.840Z,51.90
2022-08-20T07:04:19.622Z,51.17
2022-08-20T07:06:48.060Z,52.20
2022-08-20T07:09:15.910Z,52.27
2022-08-20T07:11:43.722Z,52.17
2022-08-20T07:14:11.869Z,51.93
2022-08-20T07:16:40.081Z,52.17
2022-08-20T07:19:09.288Z,52.23
2022-08-20T07:21:37.470Z,52.43
2022-08-20T07:24:05.797Z,52.30
2022-08-20T07:26:34.327Z,52.47
2022-08-20T07:29:02.289Z,52.70
2022-08-20T07:31:48.097Z,52.57
2022-08-20T07:34:17.498Z,52.63
2022-08-20T07:36:48.338Z,51.70
2022-08-20T07:39:16.747Z,51.90
2022-08-20T07:41:52.843Z,52.30
2022-08-20T07:44:29.199Z,52.50
2022-08-20T07:46:59.678Z,52.60
2022-08-20T07:49:29.898Z,52.77
2022-08-20T07:51:57.714Z,52.67
2022-08-20T07:54:25.506Z,52.50
2022-08-20T07:56:56.975Z,52.70
2022-08-20T07:59:24.812Z,53.03
2022-08-20T08:01:52.637Z,53.17
2022-08-20T08:04:20.456Z,53.33
2022-08-20T08:06:49.710Z,54.70
2022-08-20T08:09:17.749Z,54.60
2022-08-20T08:11:50.424Z,54.93
2022-08-20T08:14:23.332Z,55.87
2022-08-20T08:16:51.601Z,55.33
2022-08-20T08:19:19.969Z,56.43
2022-08-20T08:21:49.426Z,56.27
2022-08-20T08:24:21.059Z,54.83
2022-08-20T08:26:52.401Z,54.90
2022-08-20T08:29:20.262Z,55.93
2022-08-20T08:31:48.183Z,56.10
2022-08-20T08:34:15.984Z,56.07
2022-08-20T08:36:44.259Z,56.43
2022-08-20T08:39:13.505Z,55.40
2022-08-20T08:41:49.283Z,56.60
2022-08-20T08:44:24.543Z,56.50
2022-08-20T08:46:58.413Z,55.73
2022-08-20T08:49:37.706Z,55.77
2022-08-20T08:52:11.541Z,55.97
2022-08-20T08:54:45.046Z,57.03
2022-08-20T08:57:13.092Z,56.40
2022-08-20T09:00:01.430Z,56.10
2022-08-20T09:02:32.339Z,55.63
2022-08-20T09:05:02.675Z,56.77
2022-08-20T09:07:34.551Z,56.03
2022-08-20T09:10:04.425Z,55.03
2022-08-20T09:12:33.063Z,54.57
2022-08-20T09:15:01.359Z,56.30
2022-08-20T09:17:29.364Z,55.50
2022-08-20T09:19:57.356Z,56.03
2022-08-20T09:22:26.463Z,56.67
2022-08-20T09:24:54.699Z,55.80
2022-08-20T09:27:23.928Z,56.47
2022-08-20T09:29:53.336Z,56.70
2022-08-20T09:32:24.357Z,56.57
2022-08-20T09:34:56.705Z,55.57
2022-08-20T09:37:25.875Z,55.87
2022-08-20T09:39:54.151Z,56.13
2022-08-20T09:42:26.540Z,55.57
2022-08-20T09:44:54.913Z,55.17
2022-08-20T09:47:23.183Z,55.23
2022-08-20T09:49:51.331Z,54.90
2022-08-20T09:52:23.254Z,55.80
2022-08-20T09:54:52.723Z,55.80
2022-08-20T09:57:20.988Z,55.60
2022-08-20T09:59:59.632Z,55.70
2022-08-20T10:02:28.397Z,56.37
2022-08-20T10:04:56.507Z,55.57
2022-08-20T10:07:25.728Z,56.23
2022-08-20T10:09:53.532Z,55.83
2022-08-20T10:12:21.457Z,56.07
2022-08-20T10:14:50.676Z,56.03
2022-08-20T10:17:18.505Z,55.20
2022-08-20T10:19:46.332Z,55.13
2022-08-20T10:22:14.328Z,54.73
2022-08-20T10:24:42.199Z,55.73
2022-08-20T10:27:10.021Z,56.00
2022-08-20T10:29:37.854Z,55.37
2022-08-20T10:32:15.327Z,55.47
2022-08-20T10:34:44.990Z,55.00
2022-08-20T10:37:16.061Z,54.90
2022-08-20T10:39:44.091Z,55.07
2022-08-20T10:42:12.035Z,55.07
2022-08-20T10:44:40.374Z,54.07
2022-08-20T10:47:18.986Z,54.80
2022-08-20T10:49:47.207Z,55.03
2022-08-20T10:52:15.196Z,54.47
2022-08-20T10:54:43.027Z,55.13
2022-08-20T10:57:15.184Z,54.13
2022-08-20T10:59:45.169Z,54.23
2022-08-20T11:02:13.725Z,54.53
2022-08-20T11:04:43.517Z,55.10
2022-08-20T11:07:13.417Z,54.87
2022-08-20T11:09:41.602Z,54.93
2022-08-20T11:12:09.522Z,55.67
2022-08-20T11:14:37.516Z,55.03
2022-08-20T11:17:05.899Z,54.33
2022-08-20T11:19:33.902Z,54.30
2022-08-20T11:22:03.061Z,53.50
2022-08-20T11:24:31.031Z,54.40
2022-08-20T11:26:58.971Z,54.80
2022-08-20T11:29:29.101Z,54.33
2022-08-20T11:31:58.788Z,54.80
2022-08-20T11:34:26.688Z,55.43
2022-08-20T11:36:54.680Z,55.50
2022-08-20T11:39:23.926Z,54.30
2022-08-20T11:41:54.904Z,55.07
2022-08-20T11:44:23.405Z,55.37
2022-08-20T11:46:51.420Z,55.73
2022-08-20T11:49:19.247Z,56.13
2022-08-20T11:51:49.473Z,54.80
2022-08-20T11:54:18.296Z,54.83
2022-08-20T11:56:47.506Z,54.10
2022-08-20T11:59:15.552Z,55.07
2022-08-20T12:01:49.907Z,56.00
2022-08-20T12:04:33.405Z,56.03
2022-08-20T12:07:09.181Z,55.10
2022-08-20T12:09:37.029Z,56.10
2022-08-20T12:12:12.045Z,55.67
2022-08-20T12:14:42.267Z,56.10
2022-08-20T12:17:10.589Z,55.13
2022-08-20T12:19:39.935Z,55.87
2022-08-20T12:22:24.705Z,55.37
2022-08-20T12:24:54.065Z,54.50
2022-08-20T12:27:25.185Z,54.10
2022-08-20T12:29:55.135Z,54.50
2022-08-20T12:32:24.612Z,55.83
2022-08-20T12:34:53.420Z,55.00
2022-08-20T12:37:23.598Z,55.27
2022-08-20T12:39:54.962Z,54.90
2022-08-20T12:42:24.329Z,53.97
2022-08-20T12:44:52.395Z,55.50
2022-08-20T12:47:22.610Z,54.47
2022-08-20T12:49:52.461Z,54.33
2022-08-20T12:52:22.774Z,54.77
2022-08-20T12:54:51.054Z,54.93
2022-08-20T12:57:28.133Z,54.97
2022-08-20T12:59:56.212Z,54.20
2022-08-20T13:02:24.149Z,55.90
2022-08-20T13:04:52.118Z,55.70
2022-08-20T13:07:20.059Z,54.43
2022-08-20T13:09:48.027Z,55.13
2022-08-20T13:12:15.920Z,54.37
2022-08-20T13:14:45.227Z,55.00
2022-08-20T13:17:13.830Z,53.97
2022-08-20T13:19:41.751Z,54.30
2022-08-20T13:22:09.581Z,54.40
2022-08-20T13:24:38.447Z,54.47
2022-08-20T13:27:08.297Z,54.43
2022-08-20T13:29:36.515Z,55.53
2022-08-20T13:32:06.539Z,55.13
2022-08-20T13:34:34.406Z,55.30
2022-08-20T13:37:02.301Z,54.77
2022-08-20T13:39:30.121Z,55.17
2022-08-20T13:41:58.001Z,55.40
2022-08-20T13:44:32.825Z,54.80
2022-08-20T13:47:01.324Z,54.47
2022-08-20T13:49:34.020Z,53.87
2022-08-20T13:52:02.099Z,54.37
2022-08-20T13:54:31.186Z,54.60
2022-08-20T13:57:05.897Z,55.77
2022-08-20T13:59:36.798Z,55.23
2022-08-20T14:02:07.281Z,54.80
2022-08-20T14:04:37.439Z,53.90
2022-08-20T14:07:12.959Z,54.07
2022-08-20T14:09:41.227Z,54.63
2022-08-20T14:12:10.922Z,54.50
2022-08-20T14:14:38.886Z,53.73
2022-08-20T14:17:17.811Z,53.90
2022-08-20T14:19:48.384Z,54.50
2022-08-20T14:22:17.674Z,54.80
2022-08-20T14:24:46.226Z,54.53
2022-08-20T14:27:15.841Z,55.00
2022-08-20T14:29:45.767Z,55.00
2022-08-20T14:32:13.761Z,54.40
2022-08-20T14:34:41.976Z,53.93
2022-08-20T14:37:17.459Z,54.50
2022-08-20T14:39:48.436Z,54.73
2022-08-20T14:42:17.110Z,54.20
2022-08-20T14:44:45.008Z,54.60
2022-08-20T14:47:15.189Z,54.27
2022-08-20T14:49:43.130Z,55.03
2022-08-20T14:52:11.767Z,53.30
2022-08-20T14:54:41.938Z,53.97
2022-08-20T14:57:12.951Z,54.50
2022-08-20T14:59:42.009Z,54.93
2022-08-20T15:02:13.459Z,55.47
2022-08-20T15:04:42.262Z,54.43
2022-08-20T15:07:16.562Z,54.40
2022-08-20T15:09:48.292Z,54.03
2022-08-20T15:12:16.099Z,54.87
2022-08-20T15:14:44.079Z,54.80
2022-08-20T15:17:20.486Z,54.40
2022-08-20T15:19:48.370Z,54.53
2022-08-20T15:22:16.448Z,54.33
2022-08-20T15:24:44.467Z,53.93
2022-08-20T15:27:20.385Z,55.50
2022-08-20T15:29:51.005Z,55.33
2022-08-20T15:32:19.311Z,54.57
2022-08-20T15:34:47.541Z,54.53
2022-08-20T15:37:17.263Z,54.63
2022-08-20T15:39:46.059Z,54.00
2022-08-20T15:42:16.283Z,55.20
2022-08-20T15:44:44.472Z,54.37
2022-08-20T15:47:25.101Z,54.57
2022-08-20T15:49:58.299Z,54.73
2022-08-20T15:52:32.070Z,54.70
2022-08-20T15:55:01.529Z,55.80
2022-08-20T15:57:45.027Z,55.67
2022-08-20T16:00:17.065Z,55.30
2022-08-20T16:03:00.615Z,54.47
2022-08-20T16:05:39.339Z,55.80
2022-08-20T16:08:17.915Z,54.87
2022-08-20T16:10:54.806Z,53.60
2022-08-20T16:13:35.530Z,53.90
2022-08-20T16:16:04.916Z,55.37
2022-08-20T16:18:36.667Z,55.23
2022-08-20T16:21:09.479Z,55.13
2022-08-20T16:23:39.668Z,55.47
2022-08-20T16:26:19.551Z,54.83
2022-08-20T16:28:57.646Z,53.77
2022-08-20T16:31:31.507Z,54.50
2022-08-20T16:34:10.518Z,55.00
2022-08-20T16:37:03.364Z,55.23
2022-08-20T16:39:38.378Z,55.30
2022-08-20T16:42:10.085Z,55.70
2022-08-20T16:44:45.641Z,54.63
2022-08-20T16:47:18.897Z,54.83
2022-08-20T16:49:50.955Z,54.83
2022-08-20T16:52:18.821Z,54.70
2022-08-20T16:54:46.627Z,54.60
2022-08-20T16:57:17.528Z,54.67
2022-08-20T17:00:12.077Z,55.80
2022-08-20T17:02:50.658Z,55.27
2022-08-20T17:05:19.722Z,55.00
2022-08-20T17:07:52.071Z,54.80
2022-08-20T17:10:24.398Z,54.40
2022-08-20T17:12:59.334Z,54.50
2022-08-20T17:15:31.600Z,54.10
2022-08-20T17:18:18.330Z,53.70
2022-08-20T17:20:46.459Z,53.87
2022-08-20T17:23:17.987Z,53.57
2022-08-20T17:25:54.934Z,54.97
2022-08-20T17:28:23.933Z,54.07
2022-08-20T17:30:55.023Z,54.77
2022-08-20T17:33:27.860Z,54.27
2022-08-20T17:36:00.284Z,53.87
2022-08-20T17:38:34.406Z,54.00
2022-08-20T17:41:08.189Z,54.53
2022-08-20T17:43:36.515Z,54.80
2022-08-20T17:46:17.299Z,54.20
2022-08-20T17:48:47.281Z,53.73
2022-08-20T17:51:18.105Z,54.40
2022-08-20T17:53:51.804Z,54.33
2022-08-20T17:56:22.854Z,54.30
2022-08-20T17:58:55.465Z,54.00
2022-08-20T18:01:27.156Z,53.67
2022-08-20T18:03:55.414Z,54.60
2022-08-20T18:06:30.886Z,53.83
2022-08-20T18:09:05.699Z,53.17
2022-08-20T18:11:40.439Z,54.57
2022-08-20T18:14:26.516Z,53.87
2022-08-20T18:17:14.585Z,53.67
2022-08-20T18:20:11.206Z,53.60
2022-08-20T18:22:46.743Z,52.93
2022-08-20T18:25:27.236Z,54.37
2022-08-20T18:28:00.258Z,53.67
2022-08-20T18:30:28.525Z,52.90
2022-08-20T18:33:06.061Z,52.97
2022-08-20T18:35:37.405Z,53.43
2022-08-20T18:38:28.470Z,53.27
2022-08-20T18:41:07.578Z,53.80
2022-08-20T18:43:36.367Z,53.73
2022-08-20T18:46:20.630Z,52.77
2022-08-20T18:48:55.293Z,52.57
2022-08-20T18:51:30.799Z,53.60
2022-08-20T18:53:58.881Z,53.47
2022-08-20T18:56:36.315Z,53.23
2022-08-20T18:59:09.194Z,52.80
2022-08-20T19:01:39.353Z,52.97
2022-08-20T19:04:21.060Z,53.07
2022-08-20T19:06:57.426Z,52.67
2022-08-20T19:09:49.744Z,53.07
2022-08-20T19:12:42.179Z,53.17
2022-08-20T19:15:16.216Z,53.77
2022-08-20T19:18:00.475Z,53.30
2022-08-20T19:20:32.307Z,52.40
2022-08-20T19:23:06.587Z,52.87
2022-08-20T19:25:39.339Z,53.53
2022-08-20T19:28:22.395Z,53.00
2022-08-20T19:30:51.518Z,53.03
2022-08-20T19:33:29.699Z,53.13
2022-08-20T19:36:10.918Z,53.17
2022-08-20T19:38:44.543Z,52.23
2022-08-20T19:41:20.202Z,52.57
2022-08-20T19:43:59.902Z,52.90
2022-08-20T19:46:32.031Z,53.53
2022-08-20T19:49:16.433Z,53.40
2022-08-20T19:51:56.395Z,52.13
2022-08-20T19:54:26.042Z,52.40
2022-08-20T19:57:06.814Z,52.37
2022-08-20T19:59:43.018Z,53.20
2022-08-20T20:02:20.597Z,52.23
2022-08-20T20:04:55.693Z,51.97
2022-08-20T20:07:29.501Z,51.87
2022-08-20T20:09:59.130Z,52.73
2022-08-20T20:12:27.035Z,52.50
2022-08-20T20:14:56.077Z,52.77
2022-08-20T20:17:26.630Z,52.40
2022-08-20T20:19:58.978Z,51.67
2022-08-20T20:22:30.446Z,52.03
2022-08-20T20:25:03.834Z,52.43
2022-08-20T20:27:32.989Z,51.97
2022-08-20T20:30:02.647Z,51.93
2022-08-20T20:32:33.492Z,52.87
2022-08-20T20:35:04.406Z,52.17
2022-08-20T20:37:50.303Z,51.60
2022-08-20T20:40:25.415Z,51.60
2022-08-20T20:43:05.120Z,51.60
2022-08-20T20:45:36.503Z,51.20
2022-08-20T20:48:17.896Z,52.27
2022-08-20T20:50:46.861Z,51.87
2022-08-20T20:53:25.556Z,51.77
2022-08-20T20:56:26.998Z,52.33
2022-08-20T20:58:55.802Z,52.07
2022-08-20T21:01:45.604Z,51.70
2022-08-20T21:04:12.311Z,51.13
2022-08-20T21:06:40.482Z,51.10
2022-08-20T21:09:09.698Z,51.63
2022-08-20T21:11:37.615Z,51.67
2022-08-20T21:14:05.703Z,51.80
2022-08-20T21:16:33.570Z,51.70
2022-08-20T21:19:01.956Z,51.37
2022-08-20T21:21:29.843Z,51.67
2022-08-20T21:23:58.114Z,50.93
2022-08-20T21:26:28.570Z,51.30
2022-08-20T21:28:56.686Z,51.30
2022-08-20T21:31:27.045Z,52.00
2022-08-20T21:33:54.831Z,51.70
2022-08-20T21:36:22.933Z,51.80
2022-08-20T21:38:51.342Z,51.97
2022-08-20T21:41:19.429Z,50.93
2022-08-20T21:43:59.652Z,51.37
2022-08-20T21:46:28.609Z,51.27
2022-08-20T21:48:56.621Z,51.53
2022-08-20T21:51:25.515Z,51.37
2022-08-20T21:53:53.413Z,50.90
2022-08-20T21:56:22.585Z,51.13
2022-08-20T21:58:51.744Z,51.33
2022-08-20T22:01:25.095Z,51.83
2022-08-20T22:03:52.952Z,51.73
2022-08-20T22:06:21.018Z,51.77
2022-08-20T22:08:48.870Z,51.43
2022-08-20T22:11:17.217Z,51.67
2022-08-20T22:13:46.256Z,51.43
2022-08-20T22:16:16.827Z,51.47
2022-08-20T22:18:46.798Z,51.27
2022-08-20T22:21:17.581Z,51.70
2022-08-20T22:23:45.587Z,50.77
2022-08-20T22:26:13.405Z,51.47
2022-08-20T22:28:41.459Z,50.93
2022-08-20T22:31:09.932Z,51.20
2022-08-20T22:33:39.226Z,51.10
2022-08-20T22:36:08.862Z,51.30
2022-08-20T22:38:36.758Z,51.30
2022-08-20T22:41:09.093Z,50.23
2022-08-20T22:43:43.387Z,51.13
2022-08-20T22:46:27.098Z,50.57
2022-08-20T22:48:55.423Z,50.70
2022-08-20T22:51:28.691Z,51.00
2022-08-20T22:53:59.209Z,50.97
2022-08-20T22:56:27.750Z,51.03
2022-08-20T22:58:59.139Z,50.93
2022-08-20T23:01:28.072Z,51.23
2022-08-20T23:03:58.086Z,51.23
2022-08-20T23:06:29.910Z,51.00
2022-08-20T23:08:57.728Z,50.97
2022-08-20T23:11:27.067Z,50.93
2022-08-20T23:13:56.821Z,50.77
2022-08-20T23:16:25.709Z,50.30
2022-08-20T23:18:53.869Z,50.60
2022-08-20T23:21:21.702Z,50.47
2022-08-20T23:23:50.953Z,51.03
2022-08-20T23:26:22.872Z,50.60
2022-08-20T23:28:50.911Z,51.30
2022-08-20T23:31:18.789Z,50.53
2022-08-20T23:33:46.931Z,50.83
2022-08-20T23:36:17.415Z,51.10
2022-08-20T23:38:45.215Z,50.97
2022-08-20T23:41:14.375Z,51.17
2022-08-20T23:43:42.349Z,50.87
2022-08-20T23:46:10.691Z,50.87
2022-08-20T23:48:39.391Z,50.50
2022-08-20T23:51:07.511Z,51.37
2022-08-20T23:53:35.847Z,51.00
2022-08-20T23:56:04.232Z,50.60
2022-08-20T23:58:33.437Z,50.70
